sensor_id;sensor_type;location;lat;lon;timestamp;P1;durP1;ratioP1;P2;durP2;ratioP2
22967;SDS011;11650;48.106;-1.696;2023-05-16T00:02:02;11.50;;;2.87;;
22967;SDS011;11650;48.106;-1.696;2023-05-16T00:04:29;10.57;;;3.17;;
22967;SDS011;11650;48.106;-1.696;2023-05-16T00:06:56;6.67;;;2.70;;
22967;SDS011;11650;48.106;-1.696;2023-05-16T00:09:22;10.00;;;2.87;;
22967;SDS011;11650;48.106;-1.696;2023-05-16T00:11:48;12.70;;;3.30;;
22967;SDS011;11650;48.106;-1.696;2023-05-16T00:14:14;12.87;;;3.13;;
22967;SDS011;11650;48.106;-1.696;2023-05-16T00:16:40;11.53;;;3.30;;
22967;SDS011;11650;48.106;-1.696;2023-05-16T00:19:06;10.70;;;3.10;;
22967;SDS011;11650;48.106;-1.696;2023-05-16T00:21:32;11.27;;;3.00;;
22967;SDS011;11650;48.106;-1.696;2023-05-16T00:23:58;12.53;;;2.90;;
22967;SDS011;11650;48.106;-1.696;2023-05-16T00:26:24;12.53;;;3.03;;
22967;SDS011;11650;48.106;-1.696;2023-05-16T00:28:50;11.27;;;3.23;;
22967;SDS011;11650;48.106;-1.696;2023-05-16T00:31:16;11.13;;;3.27;;
22967;SDS011;11650;48.106;-1.696;2023-05-16T00:33:41;10.60;;;3.70;;
22967;SDS011;11650;48.106;-1.696;2023-05-16T00:36:07;16.23;;;3.53;;
22967;SDS011;11650;48.106;-1.696;2023-05-16T00:38:33;8.17;;;2.80;;
22967;SDS011;11650;48.106;-1.696;2023-05-16T00:40:58;10.53;;;3.10;;
22967;SDS011;11650;48.106;-1.696;2023-05-16T00:43:24;15.23;;;3.50;;
22967;SDS011;11650;48.106;-1.696;2023-05-16T00:45:50;10.27;;;3.00;;
22967;SDS011;11650;48.106;-1.696;2023-05-16T00:48:15;8.87;;;3.10;;
22967;SDS011;11650;48.106;-1.696;2023-05-16T00:50:42;14.20;;;3.37;;
22967;SDS011;11650;48.106;-1.696;2023-05-16T00:53:08;12.40;;;3.43;;
22967;SDS011;11650;48.106;-1.696;2023-05-16T00:55:34;12.70;;;3.20;;
22967;SDS011;11650;48.106;-1.696;2023-05-16T00:58:01;11.47;;;3.73;;
22967;SDS011;11650;48.106;-1.696;2023-05-16T01:00:27;11.67;;;3.53;;
22967;SDS011;11650;48.106;-1.696;2023-05-16T01:02:52;12.07;;;3.27;;
22967;SDS011;11650;48.106;-1.696;2023-05-16T01:05:18;11.87;;;3.23;;
22967;SDS011;11650;48.106;-1.696;2023-05-16T01:07:45;10.50;;;3.40;;
22967;SDS011;11650;48.106;-1.696;2023-05-16T01:10:10;12.43;;;3.23;;
22967;SDS011;11650;48.106;-1.696;2023-05-16T01:15:14;11.30;;;3.23;;
22967;SDS011;11650;48.106;-1.696;2023-05-16T01:20:35;8.50;;;3.00;;
22967;SDS011;11650;48.106;-1.696;2023-05-16T01:23:22;9.73;;;3.50;;
22967;SDS011;11650;48.106;-1.696;2023-05-16T01:26:21;10.73;;;3.63;;
22967;SDS011;11650;48.106;-1.696;2023-05-16T01:28:49;10.10;;;3.57;;
22967;SDS011;11650;48.106;-1.696;2023-05-16T01:31:16;14.50;;;3.73;;
22967;SDS011;11650;48.106;-1.696;2023-05-16T01:33:42;8.97;;;3.70;;
22967;SDS011;11650;48.106;-1.696;2023-05-16T01:36:16;13.07;;;3.63;;
22967;SDS011;11650;48.106;-1.696;2023-05-16T01:42:00;11.00;;;3.10;;
22967;SDS011;11650;48.106;-1.696;2023-05-16T01:46:58;9.43;;;4.03;;
22967;SDS011;11650;48.106;-1.696;2023-05-16T01:49:30;9.37;;;3.10;;
22967;SDS011;11650;48.106;-1.696;2023-05-16T01:52:10;10.67;;;3.93;;
22967;SDS011;11650;48.106;-1.696;2023-05-16T01:54:40;7.50;;;3.20;;
22967;SDS011;11650;48.106;-1.696;2023-05-16T01:57:09;11.03;;;3.97;;
22967;SDS011;11650;48.106;-1.696;2023-05-16T01:59:37;11.93;;;4.07;;
22967;SDS011;11650;48.106;-1.696;2023-05-16T02:02:04;14.27;;;4.10;;
22967;SDS011;11650;48.106;-1.696;2023-05-16T02:04:30;15.20;;;4.00;;
22967;SDS011;11650;48.106;-1.696;2023-05-16T02:06:56;9.50;;;4.20;;
22967;SDS011;11650;48.106;-1.696;2023-05-16T02:09:22;9.37;;;3.67;;
22967;SDS011;11650;48.106;-1.696;2023-05-16T02:11:47;13.63;;;4.37;;
22967;SDS011;11650;48.106;-1.696;2023-05-16T02:14:13;10.37;;;3.80;;
22967;SDS011;11650;48.106;-1.696;2023-05-16T02:16:39;10.43;;;3.47;;
22967;SDS011;11650;48.106;-1.696;2023-05-16T02:19:04;12.23;;;3.63;;
22967;SDS011;11650;48.106;-1.696;2023-05-16T02:21:30;13.27;;;3.77;;
22967;SDS011;11650;48.106;-1.696;2023-05-16T02:23:56;14.77;;;4.20;;
22967;SDS011;11650;48.106;-1.696;2023-05-16T02:26:21;12.83;;;3.77;;
22967;SDS011;11650;48.106;-1.696;2023-05-16T02:28:47;9.33;;;3.97;;
22967;SDS011;11650;48.106;-1.696;2023-05-16T02:31:28;13.43;;;3.80;;
22967;SDS011;11650;48.106;-1.696;2023-05-16T02:33:55;8.43;;;3.90;;
22967;SDS011;11650;48.106;-1.696;2023-05-16T02:36:22;10.40;;;4.30;;
22967;SDS011;11650;48.106;-1.696;2023-05-16T02:38:48;11.70;;;4.13;;
22967;SDS011;11650;48.106;-1.696;2023-05-16T02:41:14;14.80;;;4.97;;
22967;SDS011;11650;48.106;-1.696;2023-05-16T02:43:40;14.43;;;4.43;;
22967;SDS011;11650;48.106;-1.696;2023-05-16T02:46:20;13.60;;;4.60;;
22967;SDS011;11650;48.106;-1.696;2023-05-16T02:48:51;13.43;;;4.20;;
22967;SDS011;11650;48.106;-1.696;2023-05-16T02:51:18;14.07;;;4.80;;
22967;SDS011;11650;48.106;-1.696;2023-05-16T02:53:45;13.90;;;4.80;;
22967;SDS011;11650;48.106;-1.696;2023-05-16T02:56:11;11.97;;;4.90;;
22967;SDS011;11650;48.106;-1.696;2023-05-16T02:58:36;11.30;;;4.60;;
22967;SDS011;11650;48.106;-1.696;2023-05-16T03:01:02;11.83;;;5.10;;
22967;SDS011;11650;48.106;-1.696;2023-05-16T03:03:28;16.10;;;4.80;;
22967;SDS011;11650;48.106;-1.696;2023-05-16T03:05:54;18.57;;;5.27;;
22967;SDS011;11650;48.106;-1.696;2023-05-16T03:08:19;16.93;;;5.07;;
22967;SDS011;11650;48.106;-1.696;2023-05-16T03:10:45;11.93;;;4.50;;
22967;SDS011;11650;48.106;-1.696;2023-05-16T03:13:11;12.80;;;4.67;;
22967;SDS011;11650;48.106;-1.696;2023-05-16T03:15:36;11.87;;;4.43;;
22967;SDS011;11650;48.106;-1.696;2023-05-16T03:18:02;14.77;;;4.97;;
22967;SDS011;11650;48.106;-1.696;2023-05-16T03:20:28;12.53;;;5.17;;
22967;SDS011;11650;48.106;-1.696;2023-05-16T03:22:53;11.63;;;5.00;;
22967;SDS011;11650;48.106;-1.696;2023-05-16T03:25:19;14.27;;;5.17;;
22967;SDS011;11650;48.106;-1.696;2023-05-16T03:27:45;12.03;;;5.17;;
22967;SDS011;11650;48.106;-1.696;2023-05-16T03:30:10;14.40;;;5.30;;
22967;SDS011;11650;48.106;-1.696;2023-05-16T03:32:37;13.83;;;5.60;;
22967;SDS011;11650;48.106;-1.696;2023-05-16T03:35:03;12.67;;;5.37;;
22967;SDS011;11650;48.106;-1.696;2023-05-16T03:37:29;15.80;;;5.77;;
22967;SDS011;11650;48.106;-1.696;2023-05-16T03:39:55;13.00;;;5.97;;
22967;SDS011;11650;48.106;-1.696;2023-05-16T03:42:21;16.23;;;5.73;;
22967;SDS011;11650;48.106;-1.696;2023-05-16T03:44:47;12.13;;;5.30;;
22967;SDS011;11650;48.106;-1.696;2023-05-16T03:47:12;12.27;;;5.37;;
22967;SDS011;11650;48.106;-1.696;2023-05-16T03:49:38;12.13;;;6.00;;
22967;SDS011;11650;48.106;-1.696;2023-05-16T03:52:05;16.23;;;5.53;;
22967;SDS011;11650;48.106;-1.696;2023-05-16T03:54:31;15.77;;;5.50;;
22967;SDS011;11650;48.106;-1.696;2023-05-16T03:56:57;12.43;;;5.33;;
22967;SDS011;11650;48.106;-1.696;2023-05-16T03:59:22;14.20;;;6.10;;
22967;SDS011;11650;48.106;-1.696;2023-05-16T04:01:48;14.70;;;5.30;;
22967;SDS011;11650;48.106;-1.696;2023-05-16T04:04:14;13.97;;;5.33;;
22967;SDS011;11650;48.106;-1.696;2023-05-16T04:06:40;11.10;;;4.83;;
22967;SDS011;11650;48.106;-1.696;2023-05-16T04:09:05;12.20;;;5.47;;
22967;SDS011;11650;48.106;-1.696;2023-05-16T04:11:31;9.90;;;5.20;;
22967;SDS011;11650;48.106;-1.696;2023-05-16T04:13:58;13.87;;;5.37;;
22967;SDS011;11650;48.106;-1.696;2023-05-16T04:16:25;11.87;;;4.90;;
22967;SDS011;11650;48.106;-1.696;2023-05-16T04:18:51;13.67;;;5.80;;
22967;SDS011;11650;48.106;-1.696;2023-05-16T04:21:17;8.77;;;4.50;;
22967;SDS011;11650;48.106;-1.696;2023-05-16T04:23:42;17.40;;;4.97;;
22967;SDS011;11650;48.106;-1.696;2023-05-16T04:26:08;14.40;;;5.37;;
22967;SDS011;11650;48.106;-1.696;2023-05-16T04:28:34;8.23;;;4.80;;
22967;SDS011;11650;48.106;-1.696;2023-05-16T04:31:00;15.00;;;5.23;;
22967;SDS011;11650;48.106;-1.696;2023-05-16T04:33:26;15.07;;;5.23;;
22967;SDS011;11650;48.106;-1.696;2023-05-16T04:35:51;14.77;;;5.60;;
22967;SDS011;11650;48.106;-1.696;2023-05-16T04:38:18;11.33;;;5.37;;
22967;SDS011;11650;48.106;-1.696;2023-05-16T04:40:44;13.50;;;5.50;;
22967;SDS011;11650;48.106;-1.696;2023-05-16T04:43:10;12.03;;;5.43;;
22967;SDS011;11650;48.106;-1.696;2023-05-16T04:45:36;16.03;;;5.37;;
22967;SDS011;11650;48.106;-1.696;2023-05-16T04:48:01;14.93;;;6.70;;
22967;SDS011;11650;48.106;-1.696;2023-05-16T04:50:27;17.43;;;6.10;;
22967;SDS011;11650;48.106;-1.696;2023-05-16T04:52:53;15.00;;;6.30;;
22967;SDS011;11650;48.106;-1.696;2023-05-16T04:55:19;19.17;;;6.30;;
22967;SDS011;11650;48.106;-1.696;2023-05-16T04:57:45;10.27;;;5.60;;
22967;SDS011;11650;48.106;-1.696;2023-05-16T05:00:11;15.73;;;6.17;;
22967;SDS011;11650;48.106;-1.696;2023-05-16T05:02:37;11.90;;;6.00;;
22967;SDS011;11650;48.106;-1.696;2023-05-16T05:05:03;15.23;;;6.27;;
22967;SDS011;11650;48.106;-1.696;2023-05-16T05:07:30;13.23;;;5.43;;
22967;SDS011;11650;48.106;-1.696;2023-05-16T05:09:56;17.10;;;6.57;;
22967;SDS011;11650;48.106;-1.696;2023-05-16T05:12:22;15.33;;;6.30;;
22967;SDS011;11650;48.106;-1.696;2023-05-16T05:14:49;13.00;;;5.53;;
22967;SDS011;11650;48.106;-1.696;2023-05-16T05:17:15;15.23;;;6.13;;
22967;SDS011;11650;48.106;-1.696;2023-05-16T05:19:41;12.27;;;5.83;;
22967;SDS011;11650;48.106;-1.696;2023-05-16T05:22:07;11.70;;;6.20;;
22967;SDS011;11650;48.106;-1.696;2023-05-16T05:24:32;16.20;;;6.47;;
22967;SDS011;11650;48.106;-1.696;2023-05-16T05:26:58;15.57;;;5.97;;
22967;SDS011;11650;48.106;-1.696;2023-05-16T05:29:24;13.77;;;6.10;;
22967;SDS011;11650;48.106;-1.696;2023-05-16T05:31:49;16.57;;;5.90;;
22967;SDS011;11650;48.106;-1.696;2023-05-16T05:34:15;12.17;;;6.23;;
22967;SDS011;11650;48.106;-1.696;2023-05-16T05:36:40;12.97;;;6.27;;
22967;SDS011;11650;48.106;-1.696;2023-05-16T05:39:06;18.23;;;6.30;;
22967;SDS011;11650;48.106;-1.696;2023-05-16T05:41:32;14.13;;;6.00;;
22967;SDS011;11650;48.106;-1.696;2023-05-16T05:43:58;15.90;;;6.37;;
22967;SDS011;11650;48.106;-1.696;2023-05-16T05:46:24;15.47;;;6.43;;
22967;SDS011;11650;48.106;-1.696;2023-05-16T05:48:50;12.63;;;5.87;;
22967;SDS011;11650;48.106;-1.696;2023-05-16T05:51:16;11.13;;;6.13;;
22967;SDS011;11650;48.106;-1.696;2023-05-16T05:53:42;16.10;;;6.17;;
22967;SDS011;11650;48.106;-1.696;2023-05-16T05:56:08;14.33;;;6.30;;
22967;SDS011;11650;48.106;-1.696;2023-05-16T05:58:33;16.07;;;6.00;;
22967;SDS011;11650;48.106;-1.696;2023-05-16T06:00:59;13.00;;;6.63;;
22967;SDS011;11650;48.106;-1.696;2023-05-16T06:03:26;14.80;;;6.33;;
22967;SDS011;11650;48.106;-1.696;2023-05-16T06:05:52;14.63;;;6.53;;
22967;SDS011;11650;48.106;-1.696;2023-05-16T06:08:17;13.47;;;6.07;;
22967;SDS011;11650;48.106;-1.696;2023-05-16T06:10:43;13.30;;;6.17;;
22967;SDS011;11650;48.106;-1.696;2023-05-16T06:13:08;12.53;;;6.53;;
22967;SDS011;11650;48.106;-1.696;2023-05-16T06:15:34;15.67;;;6.10;;
22967;SDS011;11650;48.106;-1.696;2023-05-16T06:18:00;13.07;;;6.77;;
22967;SDS011;11650;48.106;-1.696;2023-05-16T06:20:26;12.20;;;5.60;;
22967;SDS011;11650;48.106;-1.696;2023-05-16T06:22:51;19.13;;;6.40;;
22967;SDS011;11650;48.106;-1.696;2023-05-16T06:25:17;16.77;;;6.50;;
22967;SDS011;11650;48.106;-1.696;2023-05-16T06:27:43;18.07;;;6.27;;
22967;SDS011;11650;48.106;-1.696;2023-05-16T06:30:09;16.67;;;7.57;;
22967;SDS011;11650;48.106;-1.696;2023-05-16T06:32:35;15.37;;;6.83;;
22967;SDS011;11650;48.106;-1.696;2023-05-16T06:35:01;15.50;;;7.50;;
22967;SDS011;11650;48.106;-1.696;2023-05-16T06:37:26;14.00;;;6.80;;
22967;SDS011;11650;48.106;-1.696;2023-05-16T06:39:52;14.40;;;7.27;;
22967;SDS011;11650;48.106;-1.696;2023-05-16T06:42:18;17.60;;;7.10;;
22967;SDS011;11650;48.106;-1.696;2023-05-16T06:44:44;13.20;;;6.37;;
22967;SDS011;11650;48.106;-1.696;2023-05-16T06:47:10;18.13;;;7.27;;
22967;SDS011;11650;48.106;-1.696;2023-05-16T06:49:36;18.03;;;7.47;;
22967;SDS011;11650;48.106;-1.696;2023-05-16T06:52:02;20.90;;;7.37;;
22967;SDS011;11650;48.106;-1.696;2023-05-16T06:54:27;18.73;;;7.03;;
22967;SDS011;11650;48.106;-1.696;2023-05-16T06:56:53;13.83;;;7.00;;
22967;SDS011;11650;48.106;-1.696;2023-05-16T06:59:19;13.33;;;6.30;;
22967;SDS011;11650;48.106;-1.696;2023-05-16T07:01:44;14.73;;;6.00;;
22967;SDS011;11650;48.106;-1.696;2023-05-16T07:04:10;11.47;;;6.00;;
22967;SDS011;11650;48.106;-1.696;2023-05-16T07:06:36;21.50;;;6.97;;
22967;SDS011;11650;48.106;-1.696;2023-05-16T07:09:01;16.77;;;6.73;;
22967;SDS011;11650;48.106;-1.696;2023-05-16T07:11:27;18.40;;;6.83;;
22967;SDS011;11650;48.106;-1.696;2023-05-16T07:13:52;14.83;;;6.57;;
22967;SDS011;11650;48.106;-1.696;2023-05-16T07:16:18;15.13;;;6.23;;
22967;SDS011;11650;48.106;-1.696;2023-05-16T07:18:44;16.37;;;6.60;;
22967;SDS011;11650;48.106;-1.696;2023-05-16T07:21:09;18.13;;;5.93;;
22967;SDS011;11650;48.106;-1.696;2023-05-16T07:23:35;11.17;;;5.37;;
22967;SDS011;11650;48.106;-1.696;2023-05-16T07:26:01;12.60;;;5.90;;
22967;SDS011;11650;48.106;-1.696;2023-05-16T07:28:27;15.23;;;4.87;;
22967;SDS011;11650;48.106;-1.696;2023-05-16T07:30:52;14.60;;;4.30;;
22967;SDS011;11650;48.106;-1.696;2023-05-16T07:33:19;10.37;;;3.60;;
22967;SDS011;11650;48.106;-1.696;2023-05-16T07:35:44;11.53;;;3.70;;
22967;SDS011;11650;48.106;-1.696;2023-05-16T07:38:10;8.00;;;3.63;;
22967;SDS011;11650;48.106;-1.696;2023-05-16T07:40:36;12.90;;;3.20;;
22967;SDS011;11650;48.106;-1.696;2023-05-16T07:43:02;12.27;;;3.30;;
22967;SDS011;11650;48.106;-1.696;2023-05-16T07:45:28;12.83;;;3.57;;
22967;SDS011;11650;48.106;-1.696;2023-05-16T07:47:53;11.97;;;3.70;;
22967;SDS011;11650;48.106;-1.696;2023-05-16T07:50:19;11.50;;;3.40;;
22967;SDS011;11650;48.106;-1.696;2023-05-16T07:52:45;11.00;;;3.00;;
22967;SDS011;11650;48.106;-1.696;2023-05-16T07:55:11;12.93;;;3.57;;
22967;SDS011;11650;48.106;-1.696;2023-05-16T07:57:37;10.70;;;3.23;;
22967;SDS011;11650;48.106;-1.696;2023-05-16T08:00:03;8.77;;;2.80;;
22967;SDS011;11650;48.106;-1.696;2023-05-16T08:02:29;9.50;;;2.93;;
22967;SDS011;11650;48.106;-1.696;2023-05-16T08:04:55;10.43;;;2.47;;
22967;SDS011;11650;48.106;-1.696;2023-05-16T08:07:21;9.47;;;2.43;;
22967;SDS011;11650;48.106;-1.696;2023-05-16T08:09:48;8.30;;;2.47;;
22967;SDS011;11650;48.106;-1.696;2023-05-16T08:12:13;8.13;;;2.20;;
22967;SDS011;11650;48.106;-1.696;2023-05-16T08:14:39;9.33;;;2.20;;
22967;SDS011;11650;48.106;-1.696;2023-05-16T08:17:05;8.43;;;2.17;;
22967;SDS011;11650;48.106;-1.696;2023-05-16T08:19:31;8.20;;;2.07;;
22967;SDS011;11650;48.106;-1.696;2023-05-16T08:21:57;8.23;;;2.50;;
22967;SDS011;11650;48.106;-1.696;2023-05-16T08:24:22;8.97;;;2.40;;
22967;SDS011;11650;48.106;-1.696;2023-05-16T08:26:48;6.97;;;2.30;;
22967;SDS011;11650;48.106;-1.696;2023-05-16T08:29:14;5.90;;;2.13;;
22967;SDS011;11650;48.106;-1.696;2023-05-16T08:31:40;6.43;;;2.00;;
22967;SDS011;11650;48.106;-1.696;2023-05-16T08:34:06;4.10;;;1.70;;
22967;SDS011;11650;48.106;-1.696;2023-05-16T08:36:33;7.07;;;2.33;;
22967;SDS011;11650;48.106;-1.696;2023-05-16T08:38:59;9.80;;;2.10;;
22967;SDS011;11650;48.106;-1.696;2023-05-16T08:41:25;5.83;;;2.20;;
22967;SDS011;11650;48.106;-1.696;2023-05-16T08:43:51;6.57;;;2.00;;
22967;SDS011;11650;48.106;-1.696;2023-05-16T08:46:17;6.53;;;1.70;;
22967;SDS011;11650;48.106;-1.696;2023-05-16T08:48:46;9.03;;;2.03;;
22967;SDS011;11650;48.106;-1.696;2023-05-16T08:51:20;5.77;;;1.80;;
22967;SDS011;11650;48.106;-1.696;2023-05-16T08:53:53;10.33;;;2.40;;
22967;SDS011;11650;48.106;-1.696;2023-05-16T08:56:25;10.53;;;2.30;;
22967;SDS011;11650;48.106;-1.696;2023-05-16T08:58:51;7.33;;;2.40;;
22967;SDS011;11650;48.106;-1.696;2023-05-16T09:01:19;7.30;;;2.03;;
22967;SDS011;11650;48.106;-1.696;2023-05-16T09:03:46;11.17;;;2.07;;
22967;SDS011;11650;48.106;-1.696;2023-05-16T09:06:13;9.23;;;2.10;;
22967;SDS011;11650;48.106;-1.696;2023-05-16T09:08:40;5.10;;;1.73;;
22967;SDS011;11650;48.106;-1.696;2023-05-16T09:11:06;7.17;;;1.87;;
22967;SDS011;11650;48.106;-1.696;2023-05-16T09:13:33;7.63;;;2.00;;
22967;SDS011;11650;48.106;-1.696;2023-05-16T09:16:12;9.03;;;2.60;;
22967;SDS011;11650;48.106;-1.696;2023-05-16T09:18:39;6.03;;;1.97;;
22967;SDS011;11650;48.106;-1.696;2023-05-16T09:21:07;8.80;;;2.13;;
22967;SDS011;11650;48.106;-1.696;2023-05-16T09:23:34;10.77;;;2.40;;
22967;SDS011;11650;48.106;-1.696;2023-05-16T09:26:00;5.97;;;2.13;;
22967;SDS011;11650;48.106;-1.696;2023-05-16T09:28:27;4.80;;;1.80;;
22967;SDS011;11650;48.106;-1.696;2023-05-16T09:30:52;4.30;;;1.73;;
22967;SDS011;11650;48.106;-1.696;2023-05-16T09:33:23;8.33;;;2.20;;
22967;SDS011;11650;48.106;-1.696;2023-05-16T09:38:21;6.70;;;1.80;;
22967;SDS011;11650;48.106;-1.696;2023-05-16T09:40:46;7.70;;;1.80;;
22967;SDS011;11650;48.106;-1.696;2023-05-16T09:43:15;5.27;;;1.53;;
22967;SDS011;11650;48.106;-1.696;2023-05-16T09:45:44;5.97;;;1.83;;
22967;SDS011;11650;48.106;-1.696;2023-05-16T09:48:11;7.10;;;1.93;;
22967;SDS011;11650;48.106;-1.696;2023-05-16T09:50:39;4.47;;;1.50;;
22967;SDS011;11650;48.106;-1.696;2023-05-16T09:53:07;4.07;;;1.57;;
22967;SDS011;11650;48.106;-1.696;2023-05-16T09:55:33;4.40;;;1.40;;
22967;SDS011;11650;48.106;-1.696;2023-05-16T09:57:59;4.40;;;1.47;;
22967;SDS011;11650;48.106;-1.696;2023-05-16T10:00:31;4.23;;;1.50;;
22967;SDS011;11650;48.106;-1.696;2023-05-16T10:02:58;3.20;;;1.60;;
22967;SDS011;11650;48.106;-1.696;2023-05-16T10:05:25;4.90;;;1.80;;
22967;SDS011;11650;48.106;-1.696;2023-05-16T10:07:53;4.73;;;1.50;;
22967;SDS011;11650;48.106;-1.696;2023-05-16T10:10:21;5.20;;;1.53;;
22967;SDS011;11650;48.106;-1.696;2023-05-16T10:12:47;5.67;;;1.93;;
22967;SDS011;11650;48.106;-1.696;2023-05-16T10:15:15;3.93;;;1.60;;
22967;SDS011;11650;48.106;-1.696;2023-05-16T10:17:42;6.33;;;1.40;;
22967;SDS011;11650;48.106;-1.696;2023-05-16T10:20:11;4.90;;;1.37;;
22967;SDS011;11650;48.106;-1.696;2023-05-16T10:22:42;6.23;;;2.00;;
22967;SDS011;11650;48.106;-1.696;2023-05-16T10:27:44;9.07;;;1.90;;
22967;SDS011;11650;48.106;-1.696;2023-05-16T10:30:11;5.47;;;1.40;;
22967;SDS011;11650;48.106;-1.696;2023-05-16T10:32:38;3.83;;;1.50;;
22967;SDS011;11650;48.106;-1.696;2023-05-16T10:35:04;5.30;;;1.47;;
22967;SDS011;11650;48.106;-1.696;2023-05-16T10:37:30;4.27;;;1.50;;
22967;SDS011;11650;48.106;-1.696;2023-05-16T10:40:00;4.13;;;1.50;;
22967;SDS011;11650;48.106;-1.696;2023-05-16T10:42:31;6.70;;;1.93;;
22967;SDS011;11650;48.106;-1.696;2023-05-16T11:09:23;4.30;;;1.80;;
22967;SDS011;11650;48.106;-1.696;2023-05-16T11:19:29;5.73;;;1.80;;
22967;SDS011;11650;48.106;-1.696;2023-05-16T11:25:03;4.53;;;1.60;;
22967;SDS011;11650;48.106;-1.696;2023-05-16T11:27:30;2.70;;;1.30;;
22967;SDS011;11650;48.106;-1.696;2023-05-16T11:30:18;5.17;;;1.50;;
22967;SDS011;11650;48.106;-1.696;2023-05-16T11:32:44;8.40;;;1.87;;
22967;SDS011;11650;48.106;-1.696;2023-05-16T11:35:14;6.03;;;1.63;;
22967;SDS011;11650;48.106;-1.696;2023-05-16T11:37:41;4.63;;;1.70;;
22967;SDS011;11650;48.106;-1.696;2023-05-16T11:40:08;4.53;;;1.40;;
22967;SDS011;11650;48.106;-1.696;2023-05-16T11:42:40;5.40;;;1.73;;
22967;SDS011;11650;48.106;-1.696;2023-05-16T11:45:17;5.93;;;1.47;;
22967;SDS011;11650;48.106;-1.696;2023-05-16T11:47:46;5.63;;;1.40;;
22967;SDS011;11650;48.106;-1.696;2023-05-16T11:50:13;4.97;;;1.40;;
22967;SDS011;11650;48.106;-1.696;2023-05-16T11:52:52;4.50;;;1.40;;
22967;SDS011;11650;48.106;-1.696;2023-05-16T11:55:20;3.50;;;1.57;;
22967;SDS011;11650;48.106;-1.696;2023-05-16T11:57:55;4.97;;;1.47;;
22967;SDS011;11650;48.106;-1.696;2023-05-16T12:00:22;6.63;;;1.43;;
22967;SDS011;11650;48.106;-1.696;2023-05-16T12:02:50;4.50;;;1.50;;
22967;SDS011;11650;48.106;-1.696;2023-05-16T12:05:17;5.80;;;1.60;;
22967;SDS011;11650;48.106;-1.696;2023-05-16T12:07:44;3.37;;;1.43;;
22967;SDS011;11650;48.106;-1.696;2023-05-16T12:10:14;4.00;;;1.50;;
22967;SDS011;11650;48.106;-1.696;2023-05-16T12:12:41;4.83;;;1.80;;
22967;SDS011;11650;48.106;-1.696;2023-05-16T12:15:12;6.33;;;1.60;;
22967;SDS011;11650;48.106;-1.696;2023-05-16T12:17:38;5.50;;;1.37;;
22967;SDS011;11650;48.106;-1.696;2023-05-16T12:20:05;4.57;;;1.50;;
22967;SDS011;11650;48.106;-1.696;2023-05-16T12:22:39;5.23;;;1.30;;
22967;SDS011;11650;48.106;-1.696;2023-05-16T12:27:56;7.93;;;1.80;;
22967;SDS011;11650;48.106;-1.696;2023-05-16T12:30:23;5.33;;;1.50;;
22967;SDS011;11650;48.106;-1.696;2023-05-16T12:33:07;4.37;;;1.57;;
22967;SDS011;11650;48.106;-1.696;2023-05-16T12:35:40;5.03;;;1.60;;
22967;SDS011;11650;48.106;-1.696;2023-05-16T12:38:08;9.10;;;2.07;;
22967;SDS011;11650;48.106;-1.696;2023-05-16T12:40:36;6.00;;;1.63;;
22967;SDS011;11650;48.106;-1.696;2023-05-16T12:43:03;4.13;;;1.40;;
22967;SDS011;11650;48.106;-1.696;2023-05-16T12:45:30;3.47;;;1.30;;
22967;SDS011;11650;48.106;-1.696;2023-05-16T12:48:02;3.87;;;1.27;;
22967;SDS011;11650;48.106;-1.696;2023-05-16T12:50:29;2.53;;;1.10;;
22967;SDS011;11650;48.106;-1.696;2023-05-16T12:52:58;7.63;;;1.90;;
22967;SDS011;11650;48.106;-1.696;2023-05-16T12:55:24;4.50;;;1.20;;
22967;SDS011;11650;48.106;-1.696;2023-05-16T12:57:51;2.73;;;1.30;;
22967;SDS011;11650;48.106;-1.696;2023-05-16T13:00:18;4.07;;;1.50;;
22967;SDS011;11650;48.106;-1.696;2023-05-16T13:02:45;6.50;;;1.43;;
22967;SDS011;11650;48.106;-1.696;2023-05-16T13:05:11;2.90;;;1.20;;
22967;SDS011;11650;48.106;-1.696;2023-05-16T13:07:39;3.27;;;1.17;;
22967;SDS011;11650;48.106;-1.696;2023-05-16T13:10:09;7.27;;;1.50;;
22967;SDS011;11650;48.106;-1.696;2023-05-16T13:12:39;7.37;;;1.67;;
22967;SDS011;11650;48.106;-1.696;2023-05-16T13:15:06;6.73;;;1.93;;
22967;SDS011;11650;48.106;-1.696;2023-05-16T13:17:35;8.90;;;1.80;;
22967;SDS011;11650;48.106;-1.696;2023-05-16T13:20:02;4.57;;;1.50;;
22967;SDS011;11650;48.106;-1.696;2023-05-16T13:22:32;6.50;;;1.50;;
22967;SDS011;11650;48.106;-1.696;2023-05-16T13:24:58;2.73;;;1.40;;
22967;SDS011;11650;48.106;-1.696;2023-05-16T13:27:24;5.70;;;1.60;;
22967;SDS011;11650;48.106;-1.696;2023-05-16T13:29:50;7.70;;;2.00;;
22967;SDS011;11650;48.106;-1.696;2023-05-16T13:32:15;5.23;;;1.60;;
22967;SDS011;11650;48.106;-1.696;2023-05-16T13:34:42;7.67;;;1.60;;
22967;SDS011;11650;48.106;-1.696;2023-05-16T13:37:08;8.20;;;1.90;;
22967;SDS011;11650;48.106;-1.696;2023-05-16T13:39:34;4.67;;;1.60;;
22967;SDS011;11650;48.106;-1.696;2023-05-16T13:42:00;5.67;;;1.60;;
22967;SDS011;11650;48.106;-1.696;2023-05-16T13:44:27;6.63;;;1.70;;
22967;SDS011;11650;48.106;-1.696;2023-05-16T13:46:56;6.30;;;1.70;;
22967;SDS011;11650;48.106;-1.696;2023-05-16T13:49:22;6.23;;;1.47;;
22967;SDS011;11650;48.106;-1.696;2023-05-16T13:51:48;6.17;;;1.67;;
22967;SDS011;11650;48.106;-1.696;2023-05-16T13:54:14;6.37;;;1.73;;
22967;SDS011;11650;48.106;-1.696;2023-05-16T13:56:39;6.40;;;1.90;;
22967;SDS011;11650;48.106;-1.696;2023-05-16T13:59:08;4.00;;;1.63;;
22967;SDS011;11650;48.106;-1.696;2023-05-16T14:01:34;5.23;;;1.57;;
22967;SDS011;11650;48.106;-1.696;2023-05-16T14:04:00;5.13;;;1.60;;
22967;SDS011;11650;48.106;-1.696;2023-05-16T14:06:26;5.82;;;1.67;;
22967;SDS011;11650;48.106;-1.696;2023-05-16T14:08:52;7.70;;;1.70;;
22967;SDS011;11650;48.106;-1.696;2023-05-16T14:11:18;9.32;;;2.17;;
22967;SDS011;11650;48.106;-1.696;2023-05-16T14:13:46;7.97;;;1.88;;
22967;SDS011;11650;48.106;-1.696;2023-05-16T14:16:13;11.90;;;1.73;;
22967;SDS011;11650;48.106;-1.696;2023-05-16T14:18:39;6.20;;;1.70;;
22967;SDS011;11650;48.106;-1.696;2023-05-16T14:21:04;7.85;;;1.73;;
22967;SDS011;11650;48.106;-1.696;2023-05-16T14:23:30;8.95;;;1.77;;
22967;SDS011;11650;48.106;-1.696;2023-05-16T14:25:56;7.07;;;1.92;;
22967;SDS011;11650;48.106;-1.696;2023-05-16T14:28:21;10.07;;;1.85;;
22967;SDS011;11650;48.106;-1.696;2023-05-16T14:30:47;5.90;;;1.63;;
22967;SDS011;11650;48.106;-1.696;2023-05-16T14:33:13;10.38;;;1.50;;
22967;SDS011;11650;48.106;-1.696;2023-05-16T14:35:38;7.10;;;1.75;;
22967;SDS011;11650;48.106;-1.696;2023-05-16T14:38:05;7.75;;;1.85;;
22967;SDS011;11650;48.106;-1.696;2023-05-16T14:40:31;5.55;;;1.75;;
22967;SDS011;11650;48.106;-1.696;2023-05-16T14:42:58;5.80;;;1.75;;
22967;SDS011;11650;48.106;-1.696;2023-05-16T14:45:24;6.13;;;1.80;;
22967;SDS011;11650;48.106;-1.696;2023-05-16T14:47:50;4.40;;;1.45;;
22967;SDS011;11650;48.106;-1.696;2023-05-16T14:50:16;7.32;;;1.80;;
22967;SDS011;11650;48.106;-1.696;2023-05-16T14:52:42;6.03;;;1.48;;
22967;SDS011;11650;48.106;-1.696;2023-05-16T14:55:08;9.82;;;1.70;;
22967;SDS011;11650;48.106;-1.696;2023-05-16T14:57:35;7.53;;;1.80;;
22967;SDS011;11650;48.106;-1.696;2023-05-16T15:00:00;5.28;;;1.48;;
22967;SDS011;11650;48.106;-1.696;2023-05-16T15:02:26;4.40;;;1.70;;
22967;SDS011;11650;48.106;-1.696;2023-05-16T15:04:52;5.68;;;1.67;;
22967;SDS011;11650;48.106;-1.696;2023-05-16T15:07:18;4.78;;;1.30;;
22967;SDS011;11650;48.106;-1.696;2023-05-16T15:09:44;5.85;;;1.70;;
22967;SDS011;11650;48.106;-1.696;2023-05-16T15:12:10;6.80;;;1.65;;
22967;SDS011;11650;48.106;-1.696;2023-05-16T15:14:36;5.45;;;1.52;;
22967;SDS011;11650;48.106;-1.696;2023-05-16T15:17:01;10.77;;;1.67;;
22967;SDS011;11650;48.106;-1.696;2023-05-16T15:19:27;6.53;;;1.70;;
22967;SDS011;11650;48.106;-1.696;2023-05-16T15:21:53;6.13;;;1.83;;